Time;durP1;ratioP1;P1;durP2;ratioP2;P2;SDS_P1;SDS_P2;PMS_P1;PMS_P2;Temp;Humidity;BMP_temperature;BMP_pressure;BME280_temperature;BME280_humidity;BME280_pressure;Samples;Min_cycle;Max_cycle;Signal;HPM_P1;HPM_P2
2022/08/08 00:02:10;;;;;;;6.05;3.80;;;28.30;64.30;;;;;;5055764;28;20179;-78
2022/08/08 00:05:05;;;;;;;4.95;3.70;;;28.30;64.10;;;;;;5040940;28;20688;-81
2022/08/08 00:07:43;;;;;;;5.60;3.75;;;28.30;64.50;;;;;;5050876;28;20190;-78
2022/08/08 00:10:17;;;;;;;6.68;3.58;;;28.30;64.60;;;;;;5060411;28;20170;-79
2022/08/08 00:13:04;;;;;;;6.10;4.13;;;28.30;64.40;;;;;;5049634;28;20217;-77
2022/08/08 00:15:43;;;;;;;7.40;4.10;;;28.30;64.40;;;;;;5038250;28;20214;-78
2022/08/08 00:18:30;;;;;;;6.15;3.58;;;28.20;64.70;;;;;;5045099;28;20191;-80
2022/08/08 00:21:01;;;;;;;5.90;3.42;;;28.20;64.60;;;;;;5051575;28;20189;-78
2022/08/08 00:23:41;;;;;;;7.97;4.10;;;28.20;64.50;;;;;;5050739;28;20195;-79
2022/08/08 00:26:27;;;;;;;6.80;3.22;;;28.20;64.60;;;;;;5048943;28;20213;-81
2022/08/08 00:29:05;;;;;;;8.40;4.28;;;28.20;64.40;;;;;;5055331;28;20223;-80
2022/08/08 00:31:40;;;;;;;4.45;3.03;;;28.20;64.70;;;;;;5055775;28;20576;-78
2022/08/08 00:35:13;;;;;;;4.50;3.20;;;28.20;64.50;;;;;;5050252;28;20218;-77
2022/08/08 00:38:00;;;;;;;6.68;3.60;;;28.20;64.60;;;;;;5037991;28;20264;-78
2022/08/08 00:41:02;;;;;;;5.82;3.42;;;28.10;64.30;;;;;;5056777;28;20213;-77
2022/08/08 00:44:18;;;;;;;5.03;3.25;;;28.10;64.30;;;;;;5030324;28;20199;-76
2022/08/08 00:47:39;;;;;;;5.90;3.50;;;28.10;64.40;;;;;;5053240;28;20266;-77
2022/08/08 00:51:20;;;;;;;6.07;3.35;;;28.10;64.30;;;;;;5002508;28;20192;-77
2022/08/08 00:54:22;;;;;;;5.38;3.13;;;28.10;64.20;;;;;;4993642;28;20196;-77
2022/08/08 00:57:22;;;;;;;9.40;3.78;;;28.10;64.60;;;;;;5035793;28;20246;-77
2022/08/08 01:00:11;;;;;;;6.57;3.40;;;28.10;64.40;;;;;;5051773;28;20186;-76
2022/08/08 01:03:13;;;;;;;5.82;3.45;;;28.10;64.40;;;;;;5047562;28;20637;-78
2022/08/08 01:06:31;;;;;;;5.70;3.38;;;28.10;64.60;;;;;;5060164;28;20201;-77
2022/08/08 01:09:46;;;;;;;6.25;3.35;;;28.10;64.50;;;;;;5057918;28;20186;-75
2022/08/08 01:12:44;;;;;;;6.20;3.45;;;28.10;65.40;;;;;;4989852;28;20201;-78
2022/08/08 01:15:47;;;;;;;5.28;3.22;;;28.00;64.50;;;;;;5047141;28;20201;-76
2022/08/08 01:18:44;;;;;;;4.72;3.28;;;28.10;64.60;;;;;;5043571;28;20195;-79
2022/08/08 01:22:13;;;;;;;5.43;3.60;;;28.00;64.80;;;;;;5041059;28;20207;-77
2022/08/08 01:25:24;;;;;;;5.68;3.30;;;28.00;64.80;;;;;;4989189;28;20839;-77
2022/08/08 01:28:17;;;;;;;6.35;3.60;;;28.00;65.00;;;;;;4985900;28;20277;-79
2022/08/08 01:31:30;;;;;;;7.90;3.70;;;27.90;65.00;;;;;;5047063;28;20566;-79
2022/08/08 01:35:06;;;;;;;5.85;3.92;;;27.90;65.30;;;;;;5047402;28;20230;-79
2022/08/08 01:38:18;;;;;;;8.10;3.20;;;27.90;65.10;;;;;;5039753;28;20689;-78
2022/08/08 01:41:00;;;;;;;8.48;3.67;;;27.90;65.40;;;;;;5029150;28;20326;-77
2022/08/08 01:43:56;;;;;;;6.95;3.60;;;27.80;65.20;;;;;;5050808;28;20192;-78
2022/08/08 01:46:41;;;;;;;6.30;3.67;;;27.80;65.40;;;;;;5040068;28;20196;-77
2022/08/08 01:49:22;;;;;;;6.88;3.45;;;27.80;65.40;;;;;;5044085;28;20191;-78
2022/08/08 01:52:18;;;;;;;6.43;3.50;;;27.80;65.40;;;;;;5044670;28;20352;-78
2022/08/08 01:55:16;;;;;;;5.35;3.38;;;27.80;65.40;;;;;;5060735;28;20203;-77
2022/08/08 01:58:26;;;;;;;5.82;3.45;;;27.80;65.50;;;;;;5060315;28;20252;-77
2022/08/08 02:01:15;;;;;;;5.45;3.33;;;27.70;65.40;;;;;;5060148;28;20239;-76
2022/08/08 02:04:09;;;;;;;5.32;3.22;;;27.70;65.50;;;;;;5048134;28;20191;-76
2022/08/08 02:07:00;;;;;;;5.75;3.30;;;27.70;65.60;;;;;;5053540;28;20218;-78
2022/08/08 02:10:03;;;;;;;8.48;3.53;;;27.70;65.90;;;;;;5054707;28;20180;-78
2022/08/08 02:12:50;;;;;;;5.97;3.75;;;27.70;65.90;;;;;;5052781;28;20254;-78
2022/08/08 02:15:36;;;;;;;6.05;3.42;;;27.60;66.00;;;;;;5054473;28;20230;-77
2022/08/08 02:18:12;;;;;;;5.43;3.60;;;27.60;66.10;;;;;;5052779;28;20199;-76
2022/08/08 02:22:30;;;;;;;6.40;3.30;;;27.60;66.00;;;;;;5058348;28;20174;-78
2022/08/08 02:23:50;;;;;;;6.90;3.28;;;27.60;66.10;;;;;;5053993;28;20839;-79
2022/08/08 02:26:28;;;;;;;5.45;3.58;;;27.60;66.10;;;;;;5066591;28;20186;-76
2022/08/08 02:29:16;;;;;;;6.60;3.38;;;27.50;66.00;;;;;;5056250;28;20293;-80
2022/08/08 02:32:11;;;;;;;5.30;3.75;;;27.50;66.10;;;;;;5049955;28;20805;-79
2022/08/08 02:35:15;;;;;;;5.35;3.20;;;27.50;66.30;;;;;;5060227;28;20294;-78
2022/08/08 02:38:36;;;;;;;10.57;3.65;;;27.50;66.30;;;;;;5043748;28;20254;-77
2022/08/08 02:41:55;;;;;;;6.47;3.92;;;27.40;66.40;;;;;;5037445;28;20274;-79
2022/08/08 02:45:02;;;;;;;6.97;3.20;;;27.40;66.40;;;;;;4971835;28;20226;-77
2022/08/08 02:48:16;;;;;;;5.63;3.60;;;27.40;66.30;;;;;;5062980;28;20209;-77
2022/08/08 02:51:30;;;;;;;5.35;3.17;;;27.30;66.30;;;;;;5059279;28;20398;-79
2022/08/08 02:54:51;;;;;;;5.93;3.22;;;27.30;66.40;;;;;;5058252;28;20200;-78
2022/08/08 02:57:53;;;;;;;5.30;3.45;;;27.30;66.90;;;;;;5059053;28;20216;-77
2022/08/08 03:00:41;;;;;;;5.55;3.63;;;27.30;66.70;;;;;;5057863;28;20246;-77
2022/08/08 03:04:00;;;;;;;5.88;3.35;;;27.20;66.60;;;;;;5064909;28;20180;-79
2022/08/08 03:07:27;;;;;;;6.97;3.72;;;27.20;66.70;;;;;;5022875;28;20199;-76
2022/08/08 03:10:58;;;;;;;7.72;3.40;;;27.20;66.90;;;;;;5054357;28;20667;-79
2022/08/08 03:13:50;;;;;;;6.90;3.90;;;27.20;66.90;;;;;;5016964;28;20187;-79
2022/08/08 03:16:47;;;;;;;7.43;3.13;;;27.20;66.90;;;;;;5052341;28;20191;-77
2022/08/08 03:19:42;;;;;;;8.65;3.25;;;27.10;67.20;;;;;;5062767;28;20194;-78
2022/08/08 03:22:18;;;;;;;5.32;3.45;;;27.10;67.10;;;;;;5048415;28;20732;-76
2022/08/08 03:25:09;;;;;;;5.10;3.28;;;27.10;67.10;;;;;;5059499;28;20206;-77
2022/08/08 03:27:52;;;;;;;5.30;3.35;;;27.10;67.20;;;;;;5063143;28;20884;-77
2022/08/08 03:30:24;;;;;;;6.38;3.28;;;27.10;67.20;;;;;;5066832;28;20266;-78
2022/08/08 03:36:00;;;;;;;6.43;3.20;;;27.00;67.20;;;;;;5053513;28;20188;-77
2022/08/08 03:38:30;;;;;;;5.13;3.40;;;27.00;67.10;;;;;;5055722;28;20203;-78
2022/08/08 03:41:20;;;;;;;5.22;3.28;;;27.00;67.10;;;;;;5049218;28;21094;-77
2022/08/08 03:44:09;;;;;;;5.80;3.30;;;27.00;67.20;;;;;;5047943;28;20194;-77
2022/08/08 03:46:44;;;;;;;6.40;3.00;;;27.00;67.20;;;;;;5047752;28;20638;-78
2022/08/08 03:49:19;;;;;;;6.53;3.45;;;27.00;67.20;;;;;;5050142;28;20197;-78
2022/08/08 03:52:10;;;;;;;5.32;3.53;;;26.90;67.10;;;;;;5040972;28;20202;-77
2022/08/08 03:54:43;;;;;;;4.28;3.10;;;26.90;67.40;;;;;;5049528;28;20183;-78
2022/08/08 03:57:33;;;;;;;6.30;3.22;;;26.90;67.40;;;;;;5050899;28;20225;-76
2022/08/08 04:00:24;;;;;;;5.25;3.20;;;26.90;67.40;;;;;;5051888;28;20661;-77
2022/08/08 04:02:58;;;;;;;5.57;3.25;;;26.90;67.40;;;;;;5051260;28;20195;-77
2022/08/08 04:05:28;;;;;;;4.45;3.15;;;26.90;67.40;;;;;;5058439;28;20325;-78
2022/08/08 04:07:58;;;;;;;6.03;3.33;;;26.90;67.70;;;;;;5053002;28;21107;-80
2022/08/08 04:10:29;;;;;;;5.45;2.90;;;26.90;68.30;;;;;;5050987;28;20193;-78
2022/08/08 04:13:01;;;;;;;4.78;3.00;;;26.90;67.60;;;;;;5055937;28;20887;-77
2022/08/08 04:15:45;;;;;;;5.55;3.03;;;26.90;67.60;;;;;;5056443;28;20714;-79
2022/08/08 04:18:33;;;;;;;5.43;3.20;;;26.90;67.70;;;;;;5046807;28;20222;-76
2022/08/08 04:21:12;;;;;;;5.00;3.05;;;26.80;68.10;;;;;;5058077;28;20198;-79
2022/08/08 04:23:47;;;;;;;6.65;3.15;;;26.90;67.90;;;;;;5053115;28;20195;-78
2022/08/08 04:26:35;;;;;;;4.10;2.53;;;26.90;68.00;;;;;;5061304;28;20228;-78
2022/08/08 04:29:25;;;;;;;6.00;3.17;;;26.90;68.00;;;;;;5057918;28;20175;-79
2022/08/08 04:31:54;;;;;;;7.40;2.95;;;26.90;68.00;;;;;;5053266;28;20190;-79
2022/08/08 04:34:27;;;;;;;6.20;3.20;;;26.90;68.80;;;;;;5053365;28;20186;-79
2022/08/08 04:37:11;;;;;;;6.72;3.33;;;26.90;67.90;;;;;;5044485;28;21449;-77
2022/08/08 04:39:39;;;;;;;4.70;3.00;;;26.90;68.00;;;;;;5067961;28;20230;-77
2022/08/08 04:42:32;;;;;;;4.80;2.83;;;26.90;68.00;;;;;;5054907;28;20740;-80
2022/08/08 04:45:03;;;;;;;5.03;3.10;;;26.90;68.10;;;;;;5047054;28;20183;-77
2022/08/08 04:47:32;;;;;;;7.63;3.60;;;26.90;68.30;;;;;;5052461;28;20871;-78
2022/08/08 04:50:10;;;;;;;5.97;3.40;;;26.90;68.20;;;;;;5060414;28;20186;-79
2022/08/08 04:52:53;;;;;;;5.32;3.38;;;27.00;68.20;;;;;;5054870;28;20194;-77
2022/08/08 04:55:32;;;;;;;4.72;3.20;;;27.00;68.30;;;;;;5047076;28;20183;-77
2022/08/08 04:58:21;;;;;;;4.65;3.15;;;27.00;68.30;;;;;;5056556;28;20219;-76
2022/08/08 05:00:51;;;;;;;7.82;3.20;;;27.00;68.60;;;;;;5054024;28;20191;-77
2022/08/08 05:03:20;;;;;;;4.63;3.20;;;27.00;68.40;;;;;;5043114;28;20183;-74
2022/08/08 05:06:08;;;;;;;4.93;3.10;;;27.00;68.50;;;;;;5052915;28;20191;-77
2022/08/08 05:08:46;;;;;;;6.25;3.05;;;27.00;68.30;;;;;;5047031;28;20207;-77
2022/08/08 05:11:19;;;;;;;8.75;3.30;;;27.10;68.60;;;;;;5035688;28;20190;-74
2022/08/08 05:13:50;;;;;;;6.18;3.40;;;27.10;68.60;;;;;;5058977;28;20199;-76
2022/08/08 05:16:30;;;;;;;7.70;3.65;;;27.10;68.60;;;;;;5045891;28;20688;-78
2022/08/08 05:19:19;;;;;;;6.30;3.22;;;27.10;68.60;;;;;;5043080;28;20228;-76
2022/08/08 05:22:09;;;;;;;7.13;3.22;;;27.10;68.40;;;;;;5044406;28;20221;-77
2022/08/08 05:24:38;;;;;;;9.07;3.75;;;27.20;68.50;;;;;;5051652;28;20265;-78
2022/08/08 05:27:08;;;;;;;5.78;3.40;;;27.20;68.50;;;;;;5060018;28;20198;-77
2022/08/08 05:29:36;;;;;;;5.50;3.63;;;27.20;68.40;;;;;;5050262;28;20183;-76
2022/08/08 05:32:09;;;;;;;5.30;3.67;;;27.30;68.50;;;;;;5052363;28;20191;-76
2022/08/08 05:34:46;;;;;;;6.68;3.50;;;27.30;68.60;;;;;;5052651;28;20325;-76
2022/08/08 05:37:19;;;;;;;5.82;3.35;;;27.30;68.60;;;;;;5054938;28;20406;-76
2022/08/08 05:39:50;;;;;;;8.55;3.80;;;27.30;68.50;;;;;;5053099;28;20246;-79
2022/08/08 05:42:23;;;;;;;5.90;3.38;;;27.40;68.60;;;;;;5054072;28;20195;-74
2022/08/08 05:44:54;;;;;;;6.57;3.35;;;27.40;68.70;;;;;;5050608;28;20203;-76
2022/08/08 05:47:29;;;;;;;4.97;3.42;;;27.40;68.40;;;;;;5050575;28;20600;-77
2022/08/08 05:50:18;;;;;;;10.10;3.55;;;27.50;68.60;;;;;;5050185;28;20669;-77
2022/08/08 05:52:48;;;;;;;5.15;3.30;;;27.50;68.30;;;;;;5059123;28;20195;-77
2022/08/08 05:55:17;;;;;;;5.85;3.70;;;27.50;68.20;;;;;;5058460;28;20640;-75
2022/08/08 05:57:47;;;;;;;5.65;3.70;;;27.50;68.20;;;;;;5066311;28;20191;-77
2022/08/08 06:00:35;;;;;;;4.35;3.00;;;27.60;68.30;;;;;;5048202;28;20215;-75
2022/08/08 06:03:13;;;;;;;7.43;3.42;;;27.70;68.00;;;;;;5060319;28;20209;-75
2022/08/08 06:05:55;;;;;;;7.65;3.63;;;27.70;67.80;;;;;;5051509;28;20641;-75
2022/08/08 06:08:28;;;;;;;6.28;3.22;;;27.70;67.80;;;;;;5044968;28;20203;-76
2022/08/08 06:11:04;;;;;;;6.53;3.60;;;27.80;67.80;;;;;;5046888;28;20644;-75
2022/08/08 06:13:32;;;;;;;6.45;3.35;;;27.80;67.70;;;;;;5045991;28;20821;-76
2022/08/08 06:16:15;;;;;;;5.70;3.47;;;27.90;67.50;;;;;;5034082;28;20282;-75
2022/08/08 06:18:54;;;;;;;6.13;3.10;;;27.90;67.50;;;;;;5042494;28;20320;-76
2022/08/08 06:21:26;;;;;;;6.88;3.50;;;27.90;67.20;;;;;;5042892;28;20190;-74
2022/08/08 06:24:17;;;;;;;5.63;3.55;;;28.00;67.00;;;;;;5040137;28;20887;-75
2022/08/08 06:27:04;;;;;;;4.75;3.15;;;28.00;66.90;;;;;;5043180;28;20198;-75
2022/08/08 06:29:35;;;;;;;6.40;3.25;;;28.10;67.00;;;;;;5048415;28;20202;-74
2022/08/08 06:32:30;;;;;;;10.18;3.58;;;28.20;66.80;;;;;;5048671;28;20737;-75
2022/08/08 06:35:03;;;;;;;5.18;3.20;;;28.20;66.10;;;;;;5044449;28;20233;-73
2022/08/08 06:37:53;;;;;;;6.53;3.20;;;28.20;66.00;;;;;;5047706;28;20211;-74
2022/08/08 06:40:26;;;;;;;7.10;3.40;;;28.20;66.00;;;;;;5040590;28;20231;-74
2022/08/08 06:43:05;;;;;;;7.70;3.00;;;28.20;66.00;;;;;;5045216;28;20274;-76
2022/08/08 06:45:37;;;;;;;7.65;3.33;;;28.30;66.00;;;;;;5046138;28;20238;-74
2022/08/08 06:48:06;;;;;;;5.88;3.25;;;28.40;65.80;;;;;;5042304;28;20192;-73
2022/08/08 06:50:38;;;;;;;6.75;3.53;;;28.40;65.70;;;;;;5048154;28;20195;-74
2022/08/08 06:53:08;;;;;;;8.40;3.90;;;28.40;65.70;;;;;;5053357;28;20556;-73
2022/08/08 06:55:47;;;;;;;7.93;3.45;;;28.50;65.80;;;;;;5052101;28;20226;-74
2022/08/08 06:58:30;;;;;;;5.88;3.10;;;28.60;65.90;;;;;;5050311;28;20266;-74
2022/08/08 07:01:02;;;;;;;5.53;3.30;;;28.60;65.80;;;;;;5045747;28;20820;-75
2022/08/08 07:03:53;;;;;;;5.90;3.15;;;28.70;65.70;;;;;;5051474;28;20190;-75
2022/08/08 07:06:50;;;;;;;6.40;3.28;;;28.70;65.60;;;;;;5048209;28;20209;-75
2022/08/08 07:09:20;;;;;;;6.40;3.30;;;28.80;65.50;;;;;;5045508;28;20191;-75
2022/08/08 07:12:00;;;;;;;5.10;3.10;;;28.80;65.30;;;;;;5052829;28;20274;-74
2022/08/08 07:14:39;;;;;;;6.25;3.10;;;28.80;64.90;;;;;;5048739;28;20701;-76
2022/08/08 07:17:16;;;;;;;6.97;3.20;;;28.90;65.80;;;;;;5052717;28;20191;-74
2022/08/08 07:20:02;;;;;;;5.38;3.42;;;28.90;64.90;;;;;;5051993;28;20248;-77
2022/08/08 07:22:42;;;;;;;7.13;3.25;;;28.90;64.50;;;;;;5047876;28;20179;-75
2022/08/08 07:25:15;;;;;;;7.15;2.92;;;29.00;64.40;;;;;;5053576;28;20183;-75
2022/08/08 07:27:50;;;;;;;5.45;2.70;;;29.10;64.40;;;;;;5055603;28;20195;-75
2022/08/08 07:30:34;;;;;;;3.92;2.83;;;29.10;64.00;;;;;;5049145;28;20211;-75
2022/08/08 07:33:04;;;;;;;7.20;3.10;;;29.10;63.60;;;;;;5047813;28;20282;-76
2022/08/08 07:35:43;;;;;;;5.15;2.95;;;29.10;63.10;;;;;;5056268;28;20556;-78
2022/08/08 07:38:29;;;;;;;4.90;3.03;;;29.20;63.00;;;;;;5045967;28;20210;-77
2022/08/08 07:41:00;;;;;;;4.13;2.63;;;29.20;63.10;;;;;;5046170;28;20593;-75
2022/08/08 07:43:34;;;;;;;4.93;2.83;;;29.20;62.70;;;;;;5050259;28;20179;-74
2022/08/08 07:46:05;;;;;;;8.15;3.42;;;29.30;62.20;;;;;;5045874;28;20183;-75
2022/08/08 07:48:54;;;;;;;12.32;3.15;;;29.30;61.80;;;;;;5049240;28;20194;-75
2022/08/08 07:51:23;;;;;;;5.75;2.67;;;29.30;63.00;;;;;;5038895;28;20898;-75
2022/08/08 07:54:21;;;;;;;8.35;3.30;;;29.30;62.10;;;;;;5044941;28;20645;-73
2022/08/08 07:57:01;;;;;;;5.05;3.00;;;29.40;62.40;;;;;;5046581;28;20191;-74
2022/08/08 07:59:49;;;;;;;6.53;2.38;;;29.40;62.00;;;;;;5046580;28;20191;-74
2022/08/08 08:02:26;;;;;;;8.07;3.03;;;29.50;61.80;;;;;;5046574;28;20187;-75
2022/08/08 08:05:11;;;;;;;5.88;2.97;;;29.50;61.80;;;;;;5042947;28;20644;-77
2022/08/08 08:07:47;;;;;;;4.03;2.60;;;29.50;61.50;;;;;;5034681;28;20202;-75
2022/08/08 08:10:27;;;;;;;4.28;2.80;;;29.70;61.80;;;;;;5046975;28;20213;-74
2022/08/08 08:13:22;;;;;;;5.22;2.47;;;29.70;61.80;;;;;;5042503;28;20218;-75
2022/08/08 08:16:11;;;;;;;6.28;3.95;;;29.80;61.80;;;;;;5049234;28;20445;-75
2022/08/08 08:18:45;;;;;;;5.20;3.17;;;29.80;61.50;;;;;;5041791;28;20696;-74
2022/08/08 08:21:25;;;;;;;5.13;2.90;;;29.90;61.30;;;;;;5037356;28;20217;-75
2022/08/08 08:24:12;;;;;;;9.82;2.72;;;29.90;61.20;;;;;;5043373;28;20744;-76
2022/08/08 08:26:44;;;;;;;8.02;3.47;;;29.90;61.00;;;;;;5043885;28;20194;-75
2022/08/08 08:29:22;;;;;;;5.68;2.92;;;29.90;60.90;;;;;;5036532;28;20199;-75
2022/08/08 08:31:56;;;;;;;7.13;3.10;;;30.00;61.10;;;;;;5046896;28;20193;-76
2022/08/08 08:34:26;;;;;;;5.28;2.72;;;30.00;61.20;;;;;;5038323;28;20198;-74
2022/08/08 08:37:00;;;;;;;5.80;2.97;;;30.10;61.50;;;;;;5045949;28;20648;-77
2022/08/08 08:39:36;;;;;;;6.07;2.72;;;30.10;61.30;;;;;;5035928;28;20795;-77
2022/08/08 08:42:26;;;;;;;6.43;2.80;;;30.10;60.90;;;;;;5042804;28;20195;-74
2022/08/08 08:45:05;;;;;;;4.00;2.38;;;30.20;61.00;;;;;;5042702;28;20707;-76
2022/08/08 08:47:52;;;;;;;6.53;3.03;;;30.30;61.00;;;;;;5042175;28;20226;-76
2022/08/08 08:50:23;;;;;;;3.53;2.47;;;30.30;61.00;;;;;;5043353;28;20192;-77
2022/08/08 08:53:04;;;;;;;9.73;2.83;;;30.40;60.80;;;;;;5051699;28;20833;-76
2022/08/08 08:55:55;;;;;;;6.63;2.80;;;30.40;60.30;;;;;;5040826;28;20203;-77
2022/08/08 08:58:34;;;;;;;9.02;2.60;;;30.40;60.20;;;;;;5037722;28;20248;-76
2022/08/08 09:01:05;;;;;;;5.72;2.72;;;30.40;60.30;;;;;;5038950;28;20217;-76
2022/08/08 09:03:41;;;;;;;6.47;2.47;;;30.50;60.40;;;;;;5045757;28;20191;-75
2022/08/08 09:06:20;;;;;;;5.15;2.97;;;30.50;60.40;;;;;;5039839;28;20328;-75
2022/08/08 09:09:09;;;;;;;4.60;2.90;;;30.60;60.30;;;;;;5042758;28;20665;-76
2022/08/08 09:12:00;;;;;;;3.63;2.55;;;30.70;60.40;;;;;;5039518;28;20191;-76
2022/08/08 09:14:38;;;;;;;4.97;3.10;;;30.70;59.80;;;;;;5043410;28;20194;-75
2022/08/08 09:17:13;;;;;;;5.95;2.80;;;30.80;59.80;;;;;;5037911;28;20205;-76
2022/08/08 09:20:03;;;;;;;4.80;3.10;;;30.80;59.80;;;;;;5041473;28;20194;-75
2022/08/08 09:22:52;;;;;;;6.60;3.00;;;30.90;59.50;;;;;;5039568;28;20195;-76
2022/08/08 09:25:26;;;;;;;5.22;2.85;;;30.90;59.30;;;;;;5042859;28;20225;-75
2022/08/08 09:28:15;;;;;;;6.93;3.20;;;30.90;58.90;;;;;;5041874;28;20206;-75
2022/08/08 09:31:10;;;;;;;8.75;3.03;;;31.00;59.10;;;;;;5036771;28;20583;-75
2022/08/08 09:33:44;;;;;;;4.13;3.03;;;31.10;58.90;;;;;;5039202;28;20610;-75
2022/08/08 09:36:34;;;;;;;8.23;3.10;;;31.10;58.80;;;;;;5040246;28;20241;-75
2022/08/08 09:39:05;;;;;;;6.38;2.83;;;31.10;58.30;;;;;;5047177;28;20226;-77
2022/08/08 09:41:57;;;;;;;8.40;3.30;;;31.20;58.30;;;;;;5037961;28;20246;-78
2022/08/08 09:45:04;;;;;;;7.22;2.85;;;31.20;58.40;;;;;;5041475;28;20203;-76
2022/08/08 09:47:50;;;;;;;6.60;3.10;;;31.30;58.10;;;;;;5041940;28;20214;-76
2022/08/08 09:50:41;;;;;;;5.72;3.30;;;31.40;58.20;;;;;;5039960;28;20270;-75
2022/08/08 09:53:20;;;;;;;6.63;2.67;;;31.40;57.80;;;;;;5040463;28;20282;-76
2022/08/08 09:55:52;;;;;;;7.07;2.85;;;31.40;57.90;;;;;;5043741;28;20699;-76
2022/08/08 09:58:38;;;;;;;5.25;2.90;;;31.50;58.00;;;;;;5044110;28;20186;-75
2022/08/08 10:01:10;;;;;;;6.40;3.13;;;31.50;58.10;;;;;;5041498;28;20297;-75
2022/08/08 10:04:01;;;;;;;8.13;2.63;;;31.60;58.10;;;;;;5032930;28;20195;-77
2022/08/08 10:10:04;;;;;;;6.90;3.28;;;31.80;57.70;;;;;;5032030;28;20938;-75
2022/08/08 10:12:36;;;;;;;5.40;2.83;;;31.80;57.20;;;;;;5044027;28;20850;-76
2022/08/08 10:15:26;;;;;;;4.43;2.95;;;31.80;56.70;;;;;;5036322;28;20183;-77
2022/08/08 10:17:56;;;;;;;4.13;3.17;;;31.90;57.00;;;;;;5045267;28;20199;-76
2022/08/08 10:20:42;;;;;;;4.28;2.60;;;32.00;57.10;;;;;;5047167;28;20229;-76
2022/08/08 10:23:23;;;;;;;7.80;2.88;;;32.00;57.30;;;;;;5040414;28;20667;-76
2022/08/08 10:26:16;;;;;;;5.53;2.88;;;32.10;56.90;;;;;;5050913;28;20195;-76
2022/08/08 10:29:06;;;;;;;8.10;3.00;;;32.20;56.90;;;;;;5051411;28;20199;-76
2022/08/08 10:34:29;;;;;;;4.78;2.92;;;32.30;57.30;;;;;;5045687;28;20194;-76
2022/08/08 10:37:00;;;;;;;8.32;2.90;;;32.30;56.60;;;;;;5048140;28;20187;-76
2022/08/08 10:39:43;;;;;;;6.10;2.97;;;32.40;56.60;;;;;;5044271;28;20254;-76
2022/08/08 10:42:24;;;;;;;4.50;2.70;;;32.50;56.00;;;;;;5045656;28;20963;-75
2022/08/08 10:45:01;;;;;;;4.63;2.60;;;32.50;55.70;;;;;;5055228;28;20229;-76
2022/08/08 10:47:37;;;;;;;4.03;2.40;;;32.60;55.90;;;;;;5043832;28;20278;-75
2022/08/08 10:50:15;;;;;;;7.35;2.60;;;32.60;55.50;;;;;;5042828;28;22398;-76
2022/08/08 10:52:46;;;;;;;7.22;2.83;;;32.70;55.20;;;;;;5045472;28;20285;-76
2022/08/08 10:55:17;;;;;;;8.55;3.03;;;32.70;55.40;;;;;;5044541;28;20604;-77
2022/08/08 10:58:07;;;;;;;8.50;3.25;;;32.80;55.30;;;;;;5041584;28;20221;-76
2022/08/08 11:00:41;;;;;;;5.40;2.80;;;32.80;54.30;;;;;;5046231;28;20235;-75
2022/08/08 11:03:21;;;;;;;11.07;2.75;;;32.90;54.60;;;;;;5047150;28;20221;-75
2022/08/08 11:06:10;;;;;;;4.45;2.28;;;32.90;54.80;;;;;;5046578;28;20195;-75
2022/08/08 11:08:42;;;;;;;7.10;2.72;;;33.00;55.70;;;;;;5044580;28;20198;-75
2022/08/08 11:11:20;;;;;;;4.38;2.50;;;33.10;55.00;;;;;;5050844;28;20210;-75
2022/08/08 11:14:10;;;;;;;8.93;2.92;;;33.10;54.20;;;;;;5049734;28;20198;-76
2022/08/08 11:16:44;;;;;;;5.68;2.97;;;33.10;54.20;;;;;;5042241;28;20199;-76
2022/08/08 11:19:14;;;;;;;3.35;2.30;;;33.10;53.30;;;;;;5043191;28;20194;-76
2022/08/08 11:21:46;;;;;;;3.92;2.58;;;33.20;53.10;;;;;;5050622;28;20214;-76
2022/08/08 11:24:27;;;;;;;6.13;2.72;;;33.30;53.40;;;;;;5044963;28;20199;-77
2022/08/08 11:27:01;;;;;;;4.55;2.88;;;33.30;53.40;;;;;;5037316;28;20214;-75
2022/08/08 11:29:48;;;;;;;5.32;3.03;;;33.40;53.40;;;;;;5042300;28;20984;-76
2022/08/08 11:32:39;;;;;;;8.27;3.03;;;33.40;52.80;;;;;;5035902;28;20903;-79
2022/08/08 11:35:09;;;;;;;4.07;2.50;;;33.40;52.80;;;;;;5044606;28;20195;-76
2022/08/08 11:37:58;;;;;;;4.60;2.83;;;33.50;52.70;;;;;;5043379;28;20198;-77
2022/08/08 11:40:49;;;;;;;5.82;2.67;;;33.50;52.60;;;;;;5049928;28;20218;-75
2022/08/08 11:43:21;;;;;;;6.60;2.50;;;33.60;52.50;;;;;;5044527;28;20294;-76
2022/08/08 11:45:53;;;;;;;4.72;2.20;;;33.60;52.80;;;;;;5044019;28;20230;-78
2022/08/08 11:48:42;;;;;;;4.85;2.50;;;33.60;52.70;;;;;;5044410;28;20266;-77
2022/08/08 11:51:17;;;;;;;4.78;2.35;;;33.60;52.60;;;;;;5041339;28;20912;-75
2022/08/08 11:54:06;;;;;;;3.67;2.50;;;33.70;52.40;;;;;;5041656;28;20199;-75
2022/08/08 11:56:56;;;;;;;8.10;2.78;;;33.80;52.40;;;;;;5039175;28;20202;-75
2022/08/08 11:59:33;;;;;;;6.40;2.95;;;33.80;52.50;;;;;;5042337;28;20195;-76
2022/08/08 12:02:23;;;;;;;4.53;2.45;;;33.90;52.30;;;;;;5040337;28;20284;-77
2022/08/08 12:05:06;;;;;;;6.25;2.83;;;33.90;52.60;;;;;;5041227;28;20193;-77
2022/08/08 12:07:48;;;;;;;6.63;2.63;;;33.90;50.40;;;;;;5038613;28;20227;-77
2022/08/08 12:10:21;;;;;;;7.53;2.70;;;33.90;50.60;;;;;;5042908;28;20202;-77
2022/08/08 12:13:01;;;;;;;5.10;2.53;;;34.00;51.10;;;;;;5044825;28;20633;-76
2022/08/08 12:15:32;;;;;;;4.50;2.90;;;34.00;51.30;;;;;;5045361;28;20191;-76
2022/08/08 12:18:15;;;;;;;4.03;2.47;;;34.00;51.20;;;;;;5045834;28;20190;-77
2022/08/08 12:20:49;;;;;;;10.93;2.83;;;34.10;50.80;;;;;;5041235;28;20197;-78
2022/08/08 12:23:28;;;;;;;5.93;2.60;;;34.10;51.00;;;;;;5043777;28;20218;-76
2022/08/08 12:26:18;;;;;;;4.72;2.70;;;34.20;51.10;;;;;;5036864;28;20191;-76
2022/08/08 12:29:19;;;;;;;4.00;2.80;;;34.20;51.00;;;;;;5036625;28;20622;-75
2022/08/08 12:32:01;;;;;;;2.65;2.17;;;34.30;50.90;;;;;;5044950;28;20288;-76
2022/08/08 12:34:35;;;;;;;7.35;2.50;;;34.30;50.50;;;;;;5044787;28;20195;-77
2022/08/08 12:37:05;;;;;;;5.63;2.65;;;34.30;50.30;;;;;;5045632;28;20195;-76
2022/08/08 12:39:37;;;;;;;5.03;3.20;;;34.30;50.00;;;;;;5042564;28;20218;-76
2022/08/08 12:42:29;;;;;;;6.53;2.70;;;34.40;50.20;;;;;;5031302;28;20662;-76
2022/08/08 12:45:05;;;;;;;3.63;2.22;;;34.40;50.30;;;;;;5041414;28;20197;-75
2022/08/08 12:48:00;;;;;;;3.67;2.38;;;34.40;50.10;;;;;;5036621;28;20276;-75
2022/08/08 12:50:46;;;;;;;6.57;2.50;;;34.50;50.20;;;;;;5043552;28;20187;-75
2022/08/08 12:53:26;;;;;;;4.28;2.63;;;34.50;50.10;;;;;;5037905;28;20268;-74
2022/08/08 12:56:06;;;;;;;5.68;2.35;;;34.50;49.80;;;;;;5039645;28;20438;-75
2022/08/08 12:58:49;;;;;;;6.32;2.85;;;34.60;49.60;;;;;;5040129;28;20293;-74
2022/08/08 13:01:19;;;;;;;6.95;2.72;;;34.60;49.20;;;;;;5042428;28;20597;-75
2022/08/08 13:04:13;;;;;;;3.10;2.38;;;34.60;49.40;;;;;;5043167;28;20239;-73
2022/08/08 13:07:00;;;;;;;4.50;2.30;;;34.60;49.80;;;;;;5044507;28;20729;-75
2022/08/08 13:09:43;;;;;;;3.63;2.55;;;34.60;49.70;;;;;;5039198;28;20195;-74
2022/08/08 13:12:34;;;;;;;6.68;2.95;;;34.70;49.90;;;;;;5038962;28;20553;-74
2022/08/08 13:15:05;;;;;;;6.75;2.63;;;34.70;49.70;;;;;;5040856;28;20281;-73
2022/08/08 13:17:36;;;;;;;6.35;2.25;;;34.70;49.80;;;;;;5042373;28;20207;-73
2022/08/08 13:20:24;;;;;;;4.07;2.20;;;34.80;49.80;;;;;;5044185;28;20195;-74
2022/08/08 13:22:56;;;;;;;4.28;2.42;;;34.80;48.80;;;;;;5035631;28;20209;-74
2022/08/08 13:25:46;;;;;;;4.43;2.72;;;34.80;48.60;;;;;;5034645;28;20709;-74
2022/08/08 13:28:29;;;;;;;3.28;1.90;;;34.80;48.60;;;;;;5043144;28;20279;-75
2022/08/08 13:31:00;;;;;;;4.05;2.67;;;34.80;48.10;;;;;;5035753;28;20274;-74
2022/08/08 13:33:33;;;;;;;6.53;2.83;;;34.80;48.00;;;;;;5043297;28;20283;-74
2022/08/08 13:36:11;;;;;;;6.53;2.40;;;34.90;48.10;;;;;;5035669;28;20193;-74
2022/08/08 13:38:41;;;;;;;6.55;2.45;;;34.80;48.00;;;;;;5042007;28;20187;-73
2022/08/08 13:41:09;;;;;;;14.32;2.65;;;34.80;48.10;;;;;;5042625;28;20191;-74
2022/08/08 13:43:46;;;;;;;6.85;2.30;;;34.90;48.40;;;;;;5044084;28;20203;-76
2022/08/08 13:46:18;;;;;;;4.55;2.28;;;34.90;48.40;;;;;;5038900;28;20210;-74
2022/08/08 13:48:57;;;;;;;4.05;2.33;;;34.90;48.30;;;;;;5040918;28;20186;-73
2022/08/08 13:51:56;;;;;;;7.43;2.40;;;34.90;47.70;;;;;;5040528;28;20191;-73
2022/08/08 13:54:26;;;;;;;8.35;2.20;;;34.90;47.80;;;;;;5041651;28;20197;-74
2022/08/08 13:57:04;;;;;;;5.65;1.92;;;34.90;47.60;;;;;;5046031;28;20195;-74
2022/08/08 13:59:41;;;;;;;5.03;2.10;;;34.90;47.30;;;;;;5050239;28;20186;-74
2022/08/08 14:02:21;;;;;;;2.95;2.15;;;34.90;47.20;;;;;;5039157;28;20573;-74
2022/08/08 14:05:02;;;;;;;5.72;2.65;;;34.90;47.20;;;;;;5043720;28;20290;-74
2022/08/08 14:07:49;;;;;;;3.67;2.20;;;34.90;47.30;;;;;;5044708;28;20195;-75
2022/08/08 14:10:22;;;;;;;5.72;2.30;;;34.90;47.10;;;;;;5047347;28;20182;-78
2022/08/08 14:13:11;;;;;;;5.47;2.20;;;35.00;47.20;;;;;;5044363;28;20282;-75
2022/08/08 14:16:04;;;;;;;4.10;2.38;;;34.90;47.00;;;;;;5047575;28;20647;-75
2022/08/08 14:18:51;;;;;;;4.03;2.30;;;35.00;47.30;;;;;;5046622;28;20203;-76
2022/08/08 14:21:38;;;;;;;4.03;2.30;;;35.00;47.50;;;;;;5046376;28;20277;-74